Time;durP1;ratioP1;P1;durP2;ratioP2;P2;SDS_P1;SDS_P2;PMS_P1;PMS_P2;Temp;Humidity;BMP_temperature;BMP_pressure;BME280_temperature;BME280_humidity;BME280_pressure;Samples;Min_cycle;Max_cycle;Signal;HPM_P1;HPM_P2
2021/06/29 06:48:42;;;;;;;11.55;6.50;;;;;;;;;;5137054;27;20484;-62
2021/06/29 06:51:09;;;;;;;14.88;6.75;;;;;;;;;;5125676;28;20031;-61
2021/06/29 06:53:35;;;;;;;12.05;6.10;;;;;;;;;;5125091;28;20126;-60
2021/06/29 06:56:01;;;;;;;9.75;6.18;;;;;;;;;;5125252;28;20022;-61
2021/06/29 06:58:27;;;;;;;13.00;6.07;;;;;;;;;;5125118;28;20030;-61
2021/06/29 07:00:53;;;;;;;13.45;6.60;;;;;;;;;;5125041;27;20478;-59
2021/06/29 07:03:19;;;;;;;9.82;5.57;;;;;;;;;;5107887;28;20427;-59
2021/06/29 07:05:45;;;;;;;9.85;5.82;;;;;;;;;;5116251;28;20112;-59
2021/06/29 07:08:11;;;;;;;9.38;5.38;;;;;;;;;;5113374;28;20071;-59
2021/06/29 07:10:38;;;;;;;11.10;5.80;;;;;;;;;;5114929;28;20043;-60
2021/06/29 07:13:04;;;;;;;9.43;5.75;;;;;;;;;;5114484;28;20035;-61
2021/06/29 07:15:30;;;;;;;10.68;6.07;;;;;;;;;;5113541;28;20096;-60
2021/06/29 07:17:56;;;;;;;9.80;5.72;;;;;;;;;;5115640;28;20027;-60
2021/06/29 07:20:23;;;;;;;8.82;5.30;;;;;;;;;;5113938;28;20032;-60
2021/06/29 07:22:49;;;;;;;8.27;5.68;;;;;;;;;;5113802;28;20019;-60
2021/06/29 07:25:15;;;;;;;10.25;5.82;;;;;;;;;;5099016;28;20032;-59
2021/06/29 07:27:41;;;;;;;9.70;5.50;;;;;;;;;;5065643;28;20369;-59
2021/06/29 07:30:08;;;;;;;8.82;5.30;;;;;;;;;;5066261;28;20024;-59
2021/06/29 07:32:34;;;;;;;11.70;5.65;;;;;;;;;;5065700;28;20692;-59
2021/06/29 07:35:00;;;;;;;9.43;5.30;;;;;;;;;;5065652;28;20055;-60
2021/06/29 07:37:27;;;;;;;9.55;5.75;;;;;;;;;;5064927;28;20086;-64
2021/06/29 07:39:53;;;;;;;9.60;6.00;;;;;;;;;;5065215;28;20068;-59
2021/06/29 07:42:19;;;;;;;8.52;5.78;;;;;;;;;;5065229;28;20451;-64
2021/06/29 07:44:45;;;;;;;7.07;5.38;;;;;;;;;;5065332;28;20027;-59
2021/06/29 07:47:11;;;;;;;12.25;5.72;;;;;;;;;;5065246;28;20059;-63
2021/06/29 07:49:37;;;;;;;10.70;5.50;;;;;;;;;;5062983;28;20490;-59
2021/06/29 07:52:03;;;;;;;7.28;5.70;;;;;;;;;;5064950;28;20025;-60
2021/06/29 07:54:29;;;;;;;6.63;5.70;;;;;;;;;;5065120;28;20078;-60
2021/06/29 07:56:55;;;;;;;9.13;5.95;;;;;;;;;;5065367;28;20128;-59
2021/06/29 07:59:21;;;;;;;10.27;5.57;;;;;;;;;;5054180;28;20021;-58
2021/06/29 08:01:47;;;;;;;11.57;6.38;;;;;;;;;;5052380;28;20096;-59
2021/06/29 08:04:14;;;;;;;7.90;5.88;;;;;;;;;;5052176;28;20033;-58
2021/06/29 08:06:40;;;;;;;7.25;5.32;;;;;;;;;;5052116;28;20052;-60
2021/06/29 08:09:06;;;;;;;6.57;5.45;;;;;;;;;;5051324;28;20029;-61
2021/06/29 08:11:34;;;;;;;7.00;5.40;;;;;;;;;;5051930;28;20029;-64
2021/06/29 08:14:00;;;;;;;8.48;6.38;;;;;;;;;;5051519;28;20018;-62
2021/06/29 08:16:27;;;;;;;8.48;5.93;;;;;;;;;;5051756;28;20025;-63
2021/06/29 08:18:53;;;;;;;9.93;5.88;;;;;;;;;;5051410;28;20017;-61
2021/06/29 08:21:19;;;;;;;7.75;5.80;;;;;;;;;;5051252;28;20068;-58
2021/06/29 08:23:45;;;;;;;10.00;5.90;;;;;;;;;;5051273;28;20048;-66
2021/06/29 08:26:11;;;;;;;8.75;5.53;;;;;;;;;;5051935;28;20037;-64
2021/06/29 08:28:37;;;;;;;7.95;5.63;;;;;;;;;;5052626;28;20036;-58
2021/06/29 08:31:04;;;;;;;9.02;6.00;;;;;;;;;;5052590;28;20465;-57
2021/06/29 08:33:30;;;;;;;9.43;6.15;;;;;;;;;;5050682;28;20032;-58
2021/06/29 08:35:57;;;;;;;11.40;5.85;;;;;;;;;;5049941;28;20029;-57
2021/06/29 08:38:23;;;;;;;9.20;5.82;;;;;;;;;;5052608;28;20142;-57
2021/06/29 08:40:50;;;;;;;10.73;6.40;;;;;;;;;;5052906;28;20025;-58
2021/06/29 08:43:17;;;;;;;10.80;6.28;;;;;;;;;;5052703;28;20032;-57
2021/06/29 08:45:43;;;;;;;9.65;6.32;;;;;;;;;;5051237;28;20104;-63
2021/06/29 08:48:10;;;;;;;9.77;6.28;;;;;;;;;;5052068;28;20060;-58
2021/06/29 08:50:39;;;;;;;9.13;5.97;;;;;;;;;;5052513;28;20461;-63
2021/06/29 08:53:06;;;;;;;12.45;6.13;;;;;;;;;;5051402;28;20392;-60
2021/06/29 08:55:34;;;;;;;10.80;5.93;;;;;;;;;;5052233;28;20028;-56
2021/06/29 08:58:00;;;;;;;10.10;6.03;;;;;;;;;;5052397;28;20419;-64
2021/06/29 09:00:26;;;;;;;8.45;5.82;;;;;;;;;;5052651;28;20036;-59
2021/06/29 09:02:52;;;;;;;9.77;5.70;;;;;;;;;;5052371;28;20040;-58
2021/06/29 09:05:23;;;;;;;10.55;6.22;;;;;;;;;;5050813;28;20040;-57
2021/06/29 09:08:08;;;;;;;8.48;6.05;;;;;;;;;;5052237;28;20087;-57
2021/06/29 09:10:35;;;;;;;9.25;5.50;;;;;;;;;;5051470;28;20025;-56
2021/06/29 09:13:02;;;;;;;13.23;5.85;;;;;;;;;;5052319;28;20025;-57
2021/06/29 09:15:47;;;;;;;9.25;6.30;;;;;;;;;;5052188;28;20082;-58
2021/06/29 09:18:23;;;;;;;7.78;5.80;;;;;;;;;;5052043;28;20033;-58
2021/06/29 09:20:57;;;;;;;7.82;6.05;;;;;;;;;;5052400;28;20039;-58
2021/06/29 09:23:25;;;;;;;7.30;5.88;;;;;;;;;;5052394;28;20023;-57
2021/06/29 09:25:51;;;;;;;9.13;5.85;;;;;;;;;;5051500;28;20068;-58
2021/06/29 09:28:22;;;;;;;9.70;5.97;;;;;;;;;;5051129;28;20472;-58
2021/06/29 09:30:52;;;;;;;8.23;6.05;;;;;;;;;;5051644;28;20044;-59
2021/06/29 09:33:23;;;;;;;9.95;6.22;;;;;;;;;;5051946;28;20027;-60
2021/06/29 09:35:50;;;;;;;8.65;5.68;;;;;;;;;;5050655;28;20378;-60
2021/06/29 09:38:22;;;;;;;13.75;7.20;;;;;;;;;;5051397;28;20032;-59
2021/06/29 09:40:53;;;;;;;10.65;6.30;;;;;;;;;;5051910;28;20503;-58
2021/06/29 09:43:20;;;;;;;8.70;6.20;;;;;;;;;;5051755;28;20035;-60
2021/06/29 09:45:51;;;;;;;8.27;5.80;;;;;;;;;;5051832;28;20472;-59
2021/06/29 09:48:19;;;;;;;9.23;5.77;;;;;;;;;;5051814;28;20501;-58
2021/06/29 09:50:49;;;;;;;9.25;6.55;;;;;;;;;;5052065;28;20246;-58
2021/06/29 09:53:16;;;;;;;9.35;5.88;;;;;;;;;;5052171;28;20420;-58
2021/06/29 09:55:44;;;;;;;10.20;6.00;;;;;;;;;;5051436;28;20431;-58
2021/06/29 09:58:10;;;;;;;7.45;6.15;;;;;;;;;;5050635;28;20485;-59
2021/06/29 10:00:42;;;;;;;8.75;5.80;;;;;;;;;;5050646;28;20033;-58
2021/06/29 10:03:25;;;;;;;9.68;5.75;;;;;;;;;;5050886;28;20028;-58
2021/06/29 10:05:52;;;;;;;11.48;6.65;;;;;;;;;;5051378;28;20022;-58
2021/06/29 10:08:29;;;;;;;11.35;6.38;;;;;;;;;;5051093;28;20085;-58
2021/06/29 10:11:27;;;;;;;12.60;6.25;;;;;;;;;;5051334;28;20060;-59
2021/06/29 10:13:59;;;;;;;8.27;5.85;;;;;;;;;;4989649;28;20121;-59
2021/06/29 10:16:26;;;;;;;9.60;5.85;;;;;;;;;;4989348;28;20081;-60
2021/06/29 10:21:29;;;;;;;10.15;6.50;;;;;;;;;;4989466;28;20030;-58
2021/06/29 10:23:57;;;;;;;11.32;6.75;;;;;;;;;;4989562;28;20525;-59
2021/06/29 10:26:24;;;;;;;9.30;6.18;;;;;;;;;;4989225;28;20038;-60
2021/06/29 10:28:50;;;;;;;8.52;5.80;;;;;;;;;;4989456;28;20038;-59
2021/06/29 10:31:21;;;;;;;11.32;6.30;;;;;;;;;;4989467;28;20125;-59
2021/06/29 10:33:48;;;;;;;8.52;6.10;;;;;;;;;;4989298;28;20034;-58
2021/06/29 10:36:14;;;;;;;7.65;6.00;;;;;;;;;;4989714;28;20042;-58
2021/06/29 10:38:40;;;;;;;8.40;6.20;;;;;;;;;;4989243;28;20045;-58
2021/06/29 10:41:07;;;;;;;9.63;6.28;;;;;;;;;;4989541;28;20026;-58
2021/06/29 10:43:36;;;;;;;7.32;5.57;;;;;;;;;;4989486;28;20034;-67
2021/06/29 10:46:03;;;;;;;7.85;5.43;;;;;;;;;;4989164;28;20030;-59
2021/06/29 10:48:30;;;;;;;10.18;5.97;;;;;;;;;;4995046;28;20026;-61
2021/06/29 10:51:00;;;;;;;8.43;6.18;;;;;;;;;;5050867;28;20040;-59
2021/06/29 10:53:38;;;;;;;8.93;6.60;;;;;;;;;;5051255;28;20037;-58
2021/06/29 10:56:05;;;;;;;7.55;5.70;;;;;;;;;;5051096;28;20036;-58
2021/06/29 10:58:37;;;;;;;10.55;5.28;;;;;;;;;;5050488;28;20358;-62
2021/06/29 11:01:20;;;;;;;9.85;5.45;;;;;;;;;;5050942;28;20029;-60
2021/06/29 11:03:46;;;;;;;7.15;4.70;;;;;;;;;;5050717;28;20521;-58
2021/06/29 11:06:12;;;;;;;10.15;4.90;;;;;;;;;;5050675;28;20078;-64
2021/06/29 11:08:47;;;;;;;6.47;4.05;;;;;;;;;;5050477;28;20489;-58
2021/06/29 11:11:14;;;;;;;8.27;4.40;;;;;;;;;;5050773;28;20036;-58
2021/06/29 11:13:48;;;;;;;7.70;4.47;;;;;;;;;;5050877;28;20029;-58
2021/06/29 11:16:14;;;;;;;9.32;5.00;;;;;;;;;;5050932;28;20037;-58
2021/06/29 11:18:40;;;;;;;8.77;4.43;;;;;;;;;;5050435;28;20056;-63
2021/06/29 11:21:09;;;;;;;8.77;4.63;;;;;;;;;;5050353;28;20022;-59
2021/06/29 11:23:36;;;;;;;7.10;4.45;;;;;;;;;;5050566;28;20040;-58
2021/06/29 11:26:16;;;;;;;6.75;4.15;;;;;;;;;;5050663;28;20029;-59
2021/06/29 11:28:44;;;;;;;7.95;3.97;;;;;;;;;;5050616;28;20033;-59
2021/06/29 11:31:23;;;;;;;5.60;4.00;;;;;;;;;;5050741;28;20051;-59
2021/06/29 11:33:50;;;;;;;8.07;3.72;;;;;;;;;;5051915;28;20044;-58
2021/06/29 11:36:25;;;;;;;6.95;3.50;;;;;;;;;;5054319;28;20064;-60
2021/06/29 11:38:52;;;;;;;7.85;4.25;;;;;;;;;;5054381;28;20056;-60
2021/06/29 11:41:25;;;;;;;7.22;3.83;;;;;;;;;;5052595;28;20032;-64
2021/06/29 11:43:51;;;;;;;10.80;5.50;;;;;;;;;;5052420;28;20404;-60
2021/06/29 11:46:36;;;;;;;7.85;4.38;;;;;;;;;;5052724;28;20523;-59
2021/06/29 11:49:08;;;;;;;7.53;4.32;;;;;;;;;;5052319;28;20485;-61
2021/06/29 11:51:50;;;;;;;9.00;3.35;;;;;;;;;;5052966;28;20396;-59
2021/06/29 11:54:32;;;;;;;4.97;3.45;;;;;;;;;;5054148;28;20296;-64
2021/06/29 11:56:59;;;;;;;5.20;3.30;;;;;;;;;;5053921;28;20041;-61
2021/06/29 11:59:29;;;;;;;6.80;3.63;;;;;;;;;;5053605;28;20499;-63
2021/06/29 12:02:02;;;;;;;8.85;4.75;;;;;;;;;;5054195;28;20389;-57
2021/06/29 12:04:28;;;;;;;8.77;4.82;;;;;;;;;;5053764;28;20472;-59
2021/06/29 12:07:02;;;;;;;9.10;5.75;;;;;;;;;;5052303;28;20045;-59
2021/06/29 12:09:37;;;;;;;8.52;3.95;;;;;;;;;;5053396;28;20028;-64
2021/06/29 12:12:16;;;;;;;5.97;3.40;;;;;;;;;;5053533;28;20059;-64
2021/06/29 12:14:42;;;;;;;7.72;3.97;;;;;;;;;;5053989;28;20033;-60
2021/06/29 12:17:08;;;;;;;4.90;3.30;;;;;;;;;;5053556;28;20037;-60
2021/06/29 12:19:35;;;;;;;6.47;3.50;;;;;;;;;;5053372;28;20055;-58
2021/06/29 12:22:01;;;;;;;5.88;3.33;;;;;;;;;;5053400;28;20111;-58
2021/06/29 12:24:27;;;;;;;5.18;3.13;;;;;;;;;;5053836;28;20507;-66
2021/06/29 12:26:53;;;;;;;5.10;3.65;;;;;;;;;;5052719;28;20087;-65
2021/06/29 12:29:29;;;;;;;5.90;3.55;;;;;;;;;;5053610;28;20108;-60
2021/06/29 12:31:55;;;;;;;3.83;3.20;;;;;;;;;;5053239;28;20075;-58
2021/06/29 12:34:22;;;;;;;5.63;3.40;;;;;;;;;;5053134;28;20098;-62
2021/06/29 12:36:49;;;;;;;5.10;3.15;;;;;;;;;;5053017;28;20385;-62
2021/06/29 12:39:15;;;;;;;7.05;3.08;;;;;;;;;;5052155;28;20531;-58
2021/06/29 12:41:43;;;;;;;5.40;3.45;;;;;;;;;;5051973;28;20016;-59
2021/06/29 12:44:10;;;;;;;5.60;3.58;;;;;;;;;;5051845;28;20033;-58
2021/06/29 12:46:36;;;;;;;5.15;3.33;;;;;;;;;;5045894;28;20041;-59
2021/06/29 12:49:10;;;;;;;6.53;3.30;;;;;;;;;;5052543;28;20025;-58
2021/06/29 12:51:36;;;;;;;8.38;4.00;;;;;;;;;;5049987;28;20086;-61
2021/06/29 12:54:03;;;;;;;7.90;3.85;;;;;;;;;;5052372;28;20032;-60
2021/06/29 12:56:30;;;;;;;5.50;3.92;;;;;;;;;;5052255;28;20032;-66
2021/06/29 12:58:57;;;;;;;7.55;4.47;;;;;;;;;;5048416;28;20032;-59
2021/06/29 13:01:23;;;;;;;7.97;4.22;;;;;;;;;;5051446;28;20033;-60
2021/06/29 13:03:54;;;;;;;7.95;4.05;;;;;;;;;;5051561;28;20376;-58
2021/06/29 13:06:22;;;;;;;6.45;3.95;;;;;;;;;;5049021;28;20021;-58
2021/06/29 13:08:48;;;;;;;8.52;4.40;;;;;;;;;;5050348;28;20432;-59
2021/06/29 13:11:18;;;;;;;7.75;4.45;;;;;;;;;;5051246;28;20021;-57
2021/06/29 13:14:02;;;;;;;6.22;4.32;;;;;;;;;;5051103;28;20029;-62
2021/06/29 13:16:28;;;;;;;12.20;4.30;;;;;;;;;;5050166;28;20495;-65
2021/06/29 13:18:55;;;;;;;8.63;4.15;;;;;;;;;;5050655;28;20052;-59
2021/06/29 13:21:23;;;;;;;9.15;3.67;;;;;;;;;;5050900;28;20112;-58
2021/06/29 13:23:59;;;;;;;10.40;4.20;;;;;;;;;;5051148;28;20025;-58
2021/06/29 13:26:26;;;;;;;9.90;4.30;;;;;;;;;;5048781;28;20033;-57
2021/06/29 13:28:52;;;;;;;8.32;4.30;;;;;;;;;;5050284;28;20536;-62
2021/06/29 13:31:18;;;;;;;10.95;4.35;;;;;;;;;;5050975;28;20024;-60
2021/06/29 13:33:44;;;;;;;10.95;4.05;;;;;;;;;;5050026;28;20029;-58
2021/06/29 13:36:10;;;;;;;8.75;3.90;;;;;;;;;;5050013;28;20346;-62
2021/06/29 13:38:36;;;;;;;10.70;4.20;;;;;;;;;;5050980;28;20096;-60
2021/06/29 13:41:03;;;;;;;11.00;3.97;;;;;;;;;;5050462;28;20103;-64
2021/06/29 13:43:35;;;;;;;12.45;4.03;;;;;;;;;;5050828;28;20036;-64
2021/06/29 13:46:12;;;;;;;13.90;4.38;;;;;;;;;;5050208;28;20481;-60
2021/06/29 13:48:38;;;;;;;9.18;4.00;;;;;;;;;;5048178;28;20025;-59
2021/06/29 13:51:19;;;;;;;11.50;4.85;;;;;;;;;;5051136;28;20021;-60
2021/06/29 13:53:45;;;;;;;7.68;4.20;;;;;;;;;;5050501;28;20409;-59
2021/06/29 13:56:14;;;;;;;14.50;4.70;;;;;;;;;;5050860;28;20029;-59
2021/06/29 13:58:40;;;;;;;13.10;4.35;;;;;;;;;;5051012;28;20078;-58
2021/06/29 14:01:08;;;;;;;13.80;4.82;;;;;;;;;;5050503;28;20123;-57
2021/06/29 14:03:34;;;;;;;11.65;5.20;;;;;;;;;;5050957;28;20094;-58
2021/06/29 14:06:06;;;;;;;11.75;5.30;;;;;;;;;;5050090;28;20376;-62
2021/06/29 14:08:36;;;;;;;12.73;4.85;;;;;;;;;;5043165;28;20033;-58
2021/06/29 14:11:02;;;;;;;15.85;6.15;;;;;;;;;;5051292;28;20503;-60
2021/06/29 14:13:29;;;;;;;19.02;6.07;;;;;;;;;;5051373;28;20036;-58
2021/06/29 14:15:55;;;;;;;15.70;6.22;;;;;;;;;;5050732;28;20027;-58
2021/06/29 14:18:22;;;;;;;12.15;5.38;;;;;;;;;;5051550;28;20083;-60
2021/06/29 14:20:49;;;;;;;12.55;5.07;;;;;;;;;;5051055;28;20035;-58
2021/06/29 14:23:15;;;;;;;14.98;5.50;;;;;;;;;;5051411;28;20028;-63
2021/06/29 14:25:41;;;;;;;17.40;5.03;;;;;;;;;;5050853;28;20029;-65
2021/06/29 14:28:08;;;;;;;17.40;5.00;;;;;;;;;;5050704;28;20539;-63
2021/06/29 14:30:34;;;;;;;12.30;4.65;;;;;;;;;;5050454;28;20021;-59
2021/06/29 14:33:00;;;;;;;17.67;5.07;;;;;;;;;;5048807;28;20021;-58
2021/06/29 14:35:26;;;;;;;14.30;4.60;;;;;;;;;;5049254;28;20075;-59
2021/06/29 14:37:53;;;;;;;14.85;5.55;;;;;;;;;;5049329;28;20028;-59
2021/06/29 14:40:20;;;;;;;16.90;4.75;;;;;;;;;;5049252;28;20021;-59
2021/06/29 14:42:46;;;;;;;20.02;4.68;;;;;;;;;;5050506;28;20554;-58
2021/06/29 14:45:16;;;;;;;19.38;5.32;;;;;;;;;;5051427;28;20024;-58
2021/06/29 14:47:42;;;;;;;18.23;5.25;;;;;;;;;;5050973;28;20068;-58
2021/06/29 14:50:09;;;;;;;17.95;4.68;;;;;;;;;;5051253;28;20033;-58
2021/06/29 14:52:35;;;;;;;15.93;4.75;;;;;;;;;;5050801;28;20025;-58
2021/06/29 14:55:01;;;;;;;16.10;5.05;;;;;;;;;;5051281;28;20477;-59
2021/06/29 14:57:27;;;;;;;15.40;4.75;;;;;;;;;;5050973;28;20108;-59
2021/06/29 14:59:54;;;;;;;17.77;4.65;;;;;;;;;;5083140;28;20032;-58
2021/06/29 15:02:20;;;;;;;15.98;4.80;;;;;;;;;;5050493;28;20036;-58
2021/06/29 15:04:46;;;;;;;13.23;4.43;;;;;;;;;;5050894;28;20025;-60
2021/06/29 15:07:12;;;;;;;17.63;5.43;;;;;;;;;;5050671;28;20060;-58
2021/06/29 15:09:39;;;;;;;17.83;5.38;;;;;;;;;;5054126;28;20036;-58
2021/06/29 15:12:05;;;;;;;17.58;5.40;;;;;;;;;;5055027;28;20048;-58
2021/06/29 15:14:32;;;;;;;15.18;5.70;;;;;;;;;;5054804;28;20033;-58
2021/06/29 15:16:58;;;;;;;12.32;5.25;;;;;;;;;;5054530;28;20033;-59
2021/06/29 15:19:24;;;;;;;15.80;5.00;;;;;;;;;;5054809;28;20043;-60
2021/06/29 15:21:50;;;;;;;18.30;5.13;;;;;;;;;;5054950;28;20064;-62
2021/06/29 15:24:16;;;;;;;16.73;5.43;;;;;;;;;;5054814;28;20028;-59
2021/06/29 15:26:46;;;;;;;21.33;5.57;;;;;;;;;;5055031;28;20059;-58
2021/06/29 15:29:12;;;;;;;14.05;4.70;;;;;;;;;;5054688;28;20111;-58
2021/06/29 15:31:38;;;;;;;14.32;5.38;;;;;;;;;;5054547;28;20104;-58
2021/06/29 15:34:04;;;;;;;17.33;4.60;;;;;;;;;;5054738;28;20092;-58
2021/06/29 15:36:31;;;;;;;22.92;4.97;;;;;;;;;;5054180;28;20044;-58
2021/06/29 15:38:57;;;;;;;17.42;4.68;;;;;;;;;;5054288;28;20032;-62
2021/06/29 15:41:23;;;;;;;21.17;5.47;;;;;;;;;;5054493;28;20029;-58
2021/06/29 15:43:49;;;;;;;20.30;5.15;;;;;;;;;;5054714;28;20503;-59
2021/06/29 15:46:15;;;;;;;18.38;5.03;;;;;;;;;;5054049;28;20044;-57
2021/06/29 15:48:41;;;;;;;18.92;5.15;;;;;;;;;;5054286;28;20064;-58
2021/06/29 15:51:07;;;;;;;23.50;5.63;;;;;;;;;;5054130;28;20021;-58
2021/06/29 15:53:33;;;;;;;17.25;5.18;;;;;;;;;;5053708;28;20086;-58
2021/06/29 15:56:01;;;;;;;17.05;5.57;;;;;;;;;;5052513;28;20370;-58
2021/06/29 15:58:27;;;;;;;19.40;5.45;;;;;;;;;;5054212;28;20019;-61
2021/06/29 16:00:53;;;;;;;12.15;4.70;;;;;;;;;;5053783;28;20362;-59
2021/06/29 16:03:19;;;;;;;14.70;4.88;;;;;;;;;;5053711;28;20025;-60
2021/06/29 16:05:45;;;;;;;17.05;4.57;;;;;;;;;;5053091;28;20589;-59
2021/06/29 16:08:11;;;;;;;15.93;4.57;;;;;;;;;;5052998;28;20041;-59
2021/06/29 16:10:38;;;;;;;20.27;5.78;;;;;;;;;;5053192;28;20014;-61
2021/06/29 16:13:04;;;;;;;18.40;5.10;;;;;;;;;;5053202;28;20056;-61
2021/06/29 16:15:30;;;;;;;17.77;5.15;;;;;;;;;;5051551;28;20017;-57
2021/06/29 16:17:56;;;;;;;20.35;5.40;;;;;;;;;;5052561;28;20036;-57
2021/06/29 16:20:22;;;;;;;20.40;4.90;;;;;;;;;;5052516;28;20104;-58
2021/06/29 16:22:48;;;;;;;20.92;4.03;;;;;;;;;;5053116;28;20025;-58
2021/06/29 16:25:14;;;;;;;19.27;4.85;;;;;;;;;;5053133;28;20025;-59
2021/06/29 16:27:41;;;;;;;16.30;4.60;;;;;;;;;;5052126;28;20112;-60
2021/06/29 16:30:08;;;;;;;20.38;5.07;;;;;;;;;;5052882;28;20025;-59
2021/06/29 16:32:34;;;;;;;16.75;4.57;;;;;;;;;;5052151;28;20037;-59
2021/06/29 16:35:02;;;;;;;18.17;5.57;;;;;;;;;;5052989;28;20103;-59
2021/06/29 16:37:29;;;;;;;18.33;4.78;;;;;;;;;;5052863;28;20025;-58
2021/06/29 16:39:55;;;;;;;21.65;5.38;;;;;;;;;;5051441;28;20477;-59
2021/06/29 16:42:21;;;;;;;15.80;5.15;;;;;;;;;;5052610;28;20469;-59
2021/06/29 16:44:47;;;;;;;17.08;4.63;;;;;;;;;;5052584;28;20031;-58
2021/06/29 16:47:13;;;;;;;19.35;4.93;;;;;;;;;;5049216;28;20107;-58
2021/06/29 16:49:40;;;;;;;18.95;5.40;;;;;;;;;;5052805;28;20484;-58
2021/06/29 16:52:06;;;;;;;16.42;5.30;;;;;;;;;;5051506;28;20029;-60
2021/06/29 16:54:32;;;;;;;17.00;4.60;;;;;;;;;;5051973;28;20108;-67
2021/06/29 16:56:58;;;;;;;15.55;5.32;;;;;;;;;;5052251;28;20429;-59
2021/06/29 16:59:27;;;;;;;20.58;5.60;;;;;;;;;;5051674;28;20025;-59
2021/06/29 17:01:53;;;;;;;17.60;5.78;;;;;;;;;;5051636;28;20437;-60
2021/06/29 17:04:19;;;;;;;16.23;4.78;;;;;;;;;;5052217;28;20103;-65
2021/06/29 17:06:46;;;;;;;16.77;5.13;;;;;;;;;;5048067;28;20095;-58
2021/06/29 17:09:15;;;;;;;17.25;5.07;;;;;;;;;;5051769;28;20052;-77
2021/06/29 17:11:41;;;;;;;14.43;5.13;;;;;;;;;;5052480;28;20025;-59
2021/06/29 17:14:07;;;;;;;24.40;5.25;;;;;;;;;;5051968;28;20366;-58
2021/06/29 17:16:37;;;;;;;18.45;4.70;;;;;;;;;;5052195;28;20033;-59
2021/06/29 17:19:04;;;;;;;18.40;5.43;;;;;;;;;;5052238;28;20029;-58
2021/06/29 17:21:30;;;;;;;16.83;5.60;;;;;;;;;;5052398;28;20025;-59
2021/06/29 17:23:56;;;;;;;9.23;4.82;;;;;;;;;;5052300;28;20047;-59
2021/06/29 17:26:22;;;;;;;15.48;6.07;;;;;;;;;;5051423;28;20036;-59
2021/06/29 17:28:48;;;;;;;14.13;5.40;;;;;;;;;;5051647;28;20029;-60
2021/06/29 17:31:14;;;;;;;10.35;4.85;;;;;;;;;;5050953;28;20531;-59
2021/06/29 17:33:40;;;;;;;12.95;5.22;;;;;;;;;;5051555;28;20120;-63
2021/06/29 17:36:07;;;;;;;15.15;5.43;;;;;;;;;;5051137;28;20029;-61
2021/06/29 17:38:33;;;;;;;10.18;5.43;;;;;;;;;;5051702;28;20025;-63
2021/06/29 17:40:59;;;;;;;13.77;5.47;;;;;;;;;;5051373;28;20029;-58
2021/06/29 17:43:25;;;;;;;15.38;5.75;;;;;;;;;;5051675;28;20025;-69
2021/06/29 17:45:51;;;;;;;13.20;5.88;;;;;;;;;;5051102;28;20029;-60
2021/06/29 17:48:17;;;;;;;10.88;5.35;;;;;;;;;;5050397;28;20053;-61
2021/06/29 17:50:44;;;;;;;17.83;5.85;;;;;;;;;;5049403;28;20029;-59
2021/06/29 17:53:10;;;;;;;10.82;5.25;;;;;;;;;;5049882;28;20036;-61
2021/06/29 17:55:37;;;;;;;11.38;5.80;;;;;;;;;;5050732;28;20017;-60
2021/06/29 17:58:03;;;;;;;12.20;5.45;;;;;;;;;;5047827;28;20032;-60
2021/06/29 18:00:29;;;;;;;16.63;5.70;;;;;;;;;;5052029;28;20518;-60
2021/06/29 18:02:55;;;;;;;21.70;6.10;;;;;;;;;;5051347;28;20028;-60
2021/06/29 18:05:21;;;;;;;21.13;6.80;;;;;;;;;;5051626;28;20017;-60
2021/06/29 18:07:47;;;;;;;16.17;6.60;;;;;;;;;;5050404;28;20087;-60
2021/06/29 18:10:14;;;;;;;15.95;6.57;;;;;;;;;;5050243;28;20021;-61
2021/06/29 18:12:40;;;;;;;14.65;6.93;;;;;;;;;;5049201;28;20079;-62
2021/06/29 18:15:07;;;;;;;17.02;6.80;;;;;;;;;;5050092;28;20367;-62
2021/06/29 18:17:33;;;;;;;12.32;6.28;;;;;;;;;;5050908;28;20032;-61
2021/06/29 18:20:00;;;;;;;16.30;7.10;;;;;;;;;;5051187;28;20024;-60
2021/06/29 18:22:26;;;;;;;18.05;6.97;;;;;;;;;;5050260;28;20398;-60
2021/06/29 18:24:53;;;;;;;17.02;6.93;;;;;;;;;;5051175;28;20518;-60
2021/06/29 18:27:19;;;;;;;15.88;7.25;;;;;;;;;;5048936;28;20473;-60
2021/06/29 18:29:46;;;;;;;12.25;6.88;;;;;;;;;;5050558;28;20025;-60
2021/06/29 18:32:13;;;;;;;14.13;7.28;;;;;;;;;;5050864;28;20112;-60
2021/06/29 18:34:39;;;;;;;12.07;6.43;;;;;;;;;;5050837;28;20052;-60
2021/06/29 18:37:05;;;;;;;14.40;6.88;;;;;;;;;;5050590;28;20037;-60
2021/06/29 18:39:32;;;;;;;15.10;7.15;;;;;;;;;;5050586;28;20052;-60
2021/06/29 18:42:03;;;;;;;15.65;7.70;;;;;;;;;;5051174;28;20029;-60
2021/06/29 18:44:29;;;;;;;20.83;8.18;;;;;;;;;;5050840;28;20029;-60
2021/06/29 18:46:56;;;;;;;17.75;7.82;;;;;;;;;;5050138;28;20060;-59
2021/06/29 18:49:22;;;;;;;20.10;7.60;;;;;;;;;;5050695;28;20062;-59
2021/06/29 18:51:48;;;;;;;20.45;8.40;;;;;;;;;;5050703;28;20055;-60
2021/06/29 18:54:14;;;;;;;18.65;7.82;;;;;;;;;;5050733;28;20025;-59
2021/06/29 18:56:40;;;;;;;18.60;7.28;;;;;;;;;;5050813;28;20032;-58
2021/06/29 18:59:06;;;;;;;17.98;6.85;;;;;;;;;;5050560;28;20353;-58
2021/06/29 19:01:32;;;;;;;14.85;7.30;;;;;;;;;;5050636;28;20025;-60
2021/06/29 19:03:58;;;;;;;15.32;6.57;;;;;;;;;;5050829;28;20036;-59
2021/06/29 19:06:24;;;;;;;16.45;6.97;;;;;;;;;;5050551;28;20029;-58
2021/06/29 19:08:55;;;;;;;17.13;7.47;;;;;;;;;;5050469;28;20028;-59
2021/06/29 19:11:25;;;;;;;15.45;7.05;;;;;;;;;;5050847;28;20021;-59
2021/06/29 19:13:51;;;;;;;15.27;7.50;;;;;;;;;;5050398;28;20048;-59
2021/06/29 19:16:17;;;;;;;14.73;6.90;;;;;;;;;;5050368;28;20037;-59
2021/06/29 19:18:44;;;;;;;15.73;7.53;;;;;;;;;;5050546;28;20382;-59
2021/06/29 19:21:10;;;;;;;16.13;7.28;;;;;;;;;;5049352;28;20055;-58
2021/06/29 19:23:36;;;;;;;17.63;7.00;;;;;;;;;;5049242;28;20021;-60
2021/06/29 19:26:03;;;;;;;13.02;6.78;;;;;;;;;;5048945;28;20105;-57
2021/06/29 19:28:29;;;;;;;10.90;6.60;;;;;;;;;;5046397;28;20033;-58
2021/06/29 19:30:55;;;;;;;17.00;7.20;;;;;;;;;;5049432;28;20025;-61
2021/06/29 19:33:22;;;;;;;17.73;8.07;;;;;;;;;;5049473;28;20535;-60
2021/06/29 19:35:48;;;;;;;11.65;6.95;;;;;;;;;;5041196;28;20048;-59
2021/06/29 19:38:14;;;;;;;13.48;7.20;;;;;;;;;;5047235;28;20491;-58
2021/06/29 19:40:41;;;;;;;16.73;7.70;;;;;;;;;;5049222;28;20021;-60
2021/06/29 19:43:07;;;;;;;14.68;7.07;;;;;;;;;;5049306;28;20021;-58
2021/06/29 19:45:33;;;;;;;14.13;7.03;;;;;;;;;;5049495;28;20396;-59
2021/06/29 19:48:01;;;;;;;13.30;7.40;;;;;;;;;;5047980;28;20553;-60
2021/06/29 19:50:27;;;;;;;15.55;7.88;;;;;;;;;;5049534;28;20023;-60
2021/06/29 19:52:53;;;;;;;16.75;7.60;;;;;;;;;;5049496;28;20492;-59
2021/06/29 19:55:21;;;;;;;17.08;7.25;;;;;;;;;;5049325;28;20028;-59
2021/06/29 19:57:48;;;;;;;16.17;7.85;;;;;;;;;;5051316;28;20023;-58
2021/06/29 20:00:15;;;;;;;16.90;7.90;;;;;;;;;;5051875;28;20033;-58
2021/06/29 20:02:42;;;;;;;12.82;8.00;;;;;;;;;;5052497;28;20021;-58
2021/06/29 20:05:09;;;;;;;17.45;8.93;;;;;;;;;;5053041;28;20025;-59
2021/06/29 20:07:36;;;;;;;19.15;8.80;;;;;;;;;;5051622;28;20040;-59
2021/06/29 20:10:02;;;;;;;17.77;8.35;;;;;;;;;;5052521;28;20056;-61
2021/06/29 20:12:29;;;;;;;14.38;8.23;;;;;;;;;;5052789;28;20074;-59
2021/06/29 20:14:55;;;;;;;17.38;7.80;;;;;;;;;;5052287;28;20619;-61
2021/06/29 20:17:21;;;;;;;38.90;24.38;;;;;;;;;;5052358;28;20032;-61
2021/06/29 20:19:47;;;;;;;17.08;10.43;;;;;;;;;;5051691;28;20094;-58
2021/06/29 20:22:13;;;;;;;16.20;7.63;;;;;;;;;;5052452;28;20025;-60
2021/06/29 20:24:39;;;;;;;17.30;8.13;;;;;;;;;;5052697;28;20036;-59
2021/06/29 20:27:05;;;;;;;19.25;8.85;;;;;;;;;;5051759;28;20040;-60
2021/06/29 20:29:31;;;;;;;14.40;8.40;;;;;;;;;;5052319;28;20064;-59
2021/06/29 20:31:57;;;;;;;18.90;8.15;;;;;;;;;;5050909;28;20468;-59
2021/06/29 20:34:23;;;;;;;12.63;7.50;;;;;;;;;;5052000;28;20033;-58
2021/06/29 20:36:49;;;;;;;11.98;7.13;;;;;;;;;;5052044;28;20074;-57
2021/06/29 20:39:16;;;;;;;21.52;8.95;;;;;;;;;;5052260;28;20707;-58
2021/06/29 20:41:42;;;;;;;17.35;7.65;;;;;;;;;;5052923;28;20029;-58
2021/06/29 20:44:09;;;;;;;20.05;7.00;;;;;;;;;;5052380;28;20104;-59
2021/06/29 20:46:36;;;;;;;18.33;7.25;;;;;;;;;;5052088;28;20061;-59
2021/06/29 20:49:03;;;;;;;14.68;7.30;;;;;;;;;;5052531;28;20021;-58
2021/06/29 20:51:30;;;;;;;18.05;7.30;;;;;;;;;;5051780;28;20025;-57
2021/06/29 20:53:56;;;;;;;16.75;7.13;;;;;;;;;;5050897;28;20098;-59
2021/06/29 20:56:41;;;;;;;15.82;6.72;;;;;;;;;;5050849;28;20368;-60
2021/06/29 20:59:14;;;;;;;13.63;7.43;;;;;;;;;;5048669;28;20021;-59
2021/06/29 21:01:41;;;;;;;13.35;7.13;;;;;;;;;;5049161;28;20028;-59
2021/06/29 21:04:07;;;;;;;16.77;6.55;;;;;;;;;;5051210;28;20464;-60
2021/06/29 21:06:33;;;;;;;16.58;6.53;;;;;;;;;;5050902;28;20098;-60
2021/06/29 21:09:00;;;;;;;16.60;6.72;;;;;;;;;;5050655;28;20040;-60
2021/06/29 21:11:26;;;;;;;12.93;6.15;;;;;;;;;;5050706;28;20021;-60
2021/06/29 21:13:53;;;;;;;13.93;6.00;;;;;;;;;;5050837;28;20028;-59
2021/06/29 21:16:19;;;;;;;16.10;6.60;;;;;;;;;;5051236;28;20033;-60
2021/06/29 21:18:45;;;;;;;12.80;6.10;;;;;;;;;;5048777;28;20021;-60
2021/06/29 21:21:11;;;;;;;11.77;6.32;;;;;;;;;;5051290;28;20059;-60
2021/06/29 21:26:25;;;;;;;18.35;6.85;;;;;;;;;;5727772;22;20074;-68
2021/06/29 21:28:52;;;;;;;11.88;6.03;;;;;;;;;;4993347;28;20066;-66